createdAt,value
2022-09-05T00:02:29.851Z,100.00
2022-09-05T00:05:48.359Z,100.00
2022-09-05T00:09:00.145Z,100.00
2022-09-05T00:11:52.515Z,100.00
2022-09-05T00:15:15.141Z,100.00
2022-09-05T00:23:07.552Z,100.00
2022-09-05T00:24:27.482Z,100.00
2022-09-05T00:25:31.771Z,100.00
2022-09-05T00:28:31.297Z,100.00
2022-09-05T00:31:54.979Z,100.00
2022-09-05T00:35:26.013Z,100.00
2022-09-05T00:38:16.967Z,100.00
2022-09-05T00:41:12.123Z,100.00
2022-09-05T00:44:02.523Z,100.00
2022-09-05T00:46:58.492Z,100.00
2022-09-05T00:49:52.208Z,100.00
2022-09-05T00:52:52.936Z,100.00
2022-09-05T00:56:03.891Z,100.00
2022-09-05T00:59:50.874Z,100.00
2022-09-05T01:03:09.463Z,100.00
2022-09-05T01:06:12.386Z,100.00
2022-09-05T01:09:18.987Z,100.00
2022-09-05T01:12:20.226Z,100.00
2022-09-05T01:15:24.184Z,100.00
2022-09-05T01:18:32.852Z,100.00
2022-09-05T01:21:38.686Z,100.00
2022-09-05T01:24:42.009Z,100.00
2022-09-05T01:29:13.245Z,100.00
2022-09-05T01:31:10.977Z,100.00
2022-09-05T01:34:10.137Z,100.00
2022-09-05T01:37:33.131Z,100.00
2022-09-05T01:40:27.040Z,100.00
2022-09-05T01:43:26.804Z,100.00
2022-09-05T01:46:28.524Z,100.00
2022-09-05T01:49:25.912Z,100.00
2022-09-05T01:52:29.671Z,100.00
2022-09-05T01:55:31.841Z,100.00
2022-09-05T01:58:34.907Z,100.00
2022-09-05T02:01:33.489Z,100.00
2022-09-05T02:04:52.526Z,100.00
2022-09-05T02:08:09.512Z,100.00
2022-09-05T02:11:07.235Z,100.00
2022-09-05T02:14:05.938Z,100.00
2022-09-05T02:16:56.332Z,100.00
2022-09-05T02:19:49.267Z,100.00
2022-09-05T02:22:44.295Z,100.00
2022-09-05T02:26:01.216Z,100.00
2022-09-05T02:28:56.691Z,100.00
2022-09-05T02:31:49.583Z,100.00
2022-09-05T02:34:45.854Z,100.00
2022-09-05T02:42:23.956Z,100.00
2022-09-05T02:45:06.151Z,100.00
2022-09-05T02:45:07.952Z,100.00
2022-09-05T02:47:27.204Z,100.00
2022-09-05T02:55:58.778Z,100.00
2022-09-05T02:57:39.664Z,100.00
2022-09-05T02:57:40.793Z,100.00
2022-09-05T03:00:22.921Z,100.00
2022-09-05T03:03:27.661Z,100.00
2022-09-05T03:06:34.551Z,100.00
2022-09-05T03:09:41.446Z,100.00
2022-09-05T03:13:14.930Z,100.00
2022-09-05T03:16:24.110Z,100.00
2022-09-05T03:19:57.163Z,100.00
2022-09-05T03:23:33.460Z,100.00
2022-09-05T03:26:39.351Z,100.00
2022-09-05T03:30:02.841Z,100.00
2022-09-05T03:33:14.147Z,100.00
2022-09-05T03:36:42.510Z,100.00
2022-09-05T03:40:16.072Z,100.00
2022-09-05T03:43:31.914Z,100.00
2022-09-05T03:46:34.689Z,100.00
2022-09-05T03:52:58.379Z,100.00
2022-09-05T03:57:13.049Z,100.00
2022-09-05T03:57:17.191Z,100.00
2022-09-05T04:00:07.852Z,100.00
2022-09-05T04:08:06.107Z,100.00
2022-09-05T04:08:28.964Z,100.00
2022-09-05T04:09:51.096Z,100.00
2022-09-05T04:12:48.782Z,100.00
2022-09-05T04:15:42.245Z,100.00
2022-09-05T04:18:37.907Z,100.00
2022-09-05T04:21:29.090Z,100.00
2022-09-05T04:24:25.376Z,100.00
2022-09-05T04:27:30.381Z,100.00
2022-09-05T04:30:39.742Z,100.00
2022-09-05T04:33:36.274Z,100.00
2022-09-05T04:36:28.855Z,100.00
2022-09-05T04:39:28.585Z,100.00
2022-09-05T04:42:25.202Z,100.00
2022-09-05T04:45:17.849Z,100.00
2022-09-05T04:48:15.906Z,100.00
2022-09-05T04:51:13.136Z,100.00
2022-09-05T04:54:18.018Z,100.00
2022-09-05T04:57:19.115Z,100.00
2022-09-05T05:06:01.743Z,100.00
2022-09-05T05:06:17.340Z,100.00
2022-09-05T05:06:45.973Z,100.00
2022-09-05T05:09:41.256Z,100.00
2022-09-05T05:17:54.907Z,100.00
2022-09-05T05:17:58.897Z,100.00
2022-09-05T05:19:18.860Z,100.00
2022-09-05T05:22:15.626Z,100.00
2022-09-05T05:25:04.413Z,100.00
2022-09-05T05:28:15.538Z,100.00
2022-09-05T05:31:18.663Z,100.00
2022-09-05T05:34:24.793Z,100.00
2022-09-05T05:37:20.302Z,100.00
2022-09-05T05:40:14.243Z,100.00
2022-09-05T05:43:16.037Z,100.00
2022-09-05T05:46:04.390Z,100.00
2022-09-05T05:49:14.850Z,100.00
2022-09-05T05:52:26.313Z,100.00
2022-09-05T05:55:53.128Z,100.00
2022-09-05T05:58:56.945Z,100.00
2022-09-05T06:02:39.962Z,100.00
2022-09-05T06:05:50.596Z,100.00
2022-09-05T06:13:54.376Z,100.00
2022-09-05T06:14:57.129Z,100.00
2022-09-05T06:16:43.430Z,100.00
2022-09-05T06:20:28.786Z,100.00
2022-09-05T06:23:38.963Z,100.00
2022-09-05T06:27:08.877Z,100.00
2022-09-05T06:30:01.440Z,100.00
2022-09-05T06:33:10.268Z,100.00
2022-09-05T06:36:15.037Z,100.00
2022-09-05T06:39:13.122Z,100.00
2022-09-05T06:42:28.560Z,100.00
2022-09-05T06:46:06.776Z,100.00
2022-09-05T06:49:30.425Z,100.00
2022-09-05T06:52:33.157Z,100.00
2022-09-05T06:55:42.880Z,100.00
2022-09-05T06:59:09.748Z,100.00
2022-09-05T07:02:08.572Z,100.00
2022-09-05T07:05:36.877Z,100.00
2022-09-05T07:08:35.660Z,100.00
2022-09-05T07:11:30.762Z,100.00
2022-09-05T07:14:23.046Z,100.00
2022-09-05T07:17:15.334Z,100.00
2022-09-05T07:20:10.872Z,100.00
2022-09-05T07:23:52.762Z,100.00
2022-09-05T07:26:51.598Z,100.00
2022-09-05T07:29:35.350Z,97.73
2022-09-05T07:32:24.755Z,98.98
2022-09-05T07:35:20.162Z,97.74
2022-09-05T07:38:19.730Z,95.79
2022-09-05T07:41:18.344Z,94.18
2022-09-05T07:44:12.619Z,94.26
2022-09-05T07:47:06.997Z,94.46
2022-09-05T07:51:00.701Z,93.11
2022-09-05T07:57:04.125Z,92.14
2022-09-05T07:57:08.506Z,92.16
2022-09-05T07:59:26.071Z,91.37
2022-09-05T08:02:15.745Z,88.33
2022-09-05T08:05:05.286Z,86.26
2022-09-05T08:07:56.945Z,82.82
2022-09-05T08:11:23.450Z,80.81
2022-09-05T08:14:18.148Z,78.25
2022-09-05T08:17:13.436Z,74.61
2022-09-05T08:20:17.040Z,75.56
2022-09-05T08:23:11.680Z,75.02
2022-09-05T08:26:04.713Z,72.43
2022-09-05T08:29:00.162Z,73.58
2022-09-05T08:31:53.840Z,70.86
2022-09-05T08:34:45.940Z,72.29
2022-09-05T08:37:36.820Z,70.36
2022-09-05T08:40:30.064Z,71.48
2022-09-05T08:46:38.065Z,68.30
2022-09-05T08:46:50.530Z,69.73
2022-09-05T08:49:58.845Z,66.65
2022-09-05T08:52:58.204Z,64.27
2022-09-05T08:55:55.075Z,63.49
2022-09-05T08:59:28.474Z,60.76
2022-09-05T09:02:47.990Z,60.50
2022-09-05T09:06:13.599Z,60.64
2022-09-05T09:09:13.427Z,58.61
2022-09-05T09:12:10.291Z,59.50
2022-09-05T09:15:01.198Z,57.53
2022-09-05T09:17:50.588Z,57.69
2022-09-05T09:20:49.052Z,55.85
2022-09-05T09:23:47.662Z,54.79
2022-09-05T09:26:43.614Z,53.57
2022-09-05T09:29:36.482Z,54.52
2022-09-05T09:32:25.193Z,54.01
2022-09-05T09:35:21.876Z,56.06
2022-09-05T09:38:26.333Z,57.61
2022-09-05T09:41:31.467Z,61.38
2022-09-05T09:44:52.294Z,55.25
2022-09-05T09:48:23.383Z,57.09
2022-09-05T09:51:33.051Z,53.29
2022-09-05T09:54:54.591Z,53.85
2022-09-05T09:58:20.689Z,55.43
2022-09-05T10:01:36.343Z,54.76
2022-09-05T10:10:35.058Z,55.21
2022-09-05T10:10:53.207Z,54.95
2022-09-05T10:11:56.687Z,55.71
2022-09-05T10:15:30.896Z,55.52
2022-09-05T10:18:35.507Z,52.75
2022-09-05T10:21:46.517Z,55.35
2022-09-05T10:25:18.472Z,57.03
2022-09-05T10:28:13.906Z,55.54
2022-09-05T10:32:23.256Z,54.58
2022-09-05T10:35:14.791Z,50.79
2022-09-05T10:37:42.146Z,49.41
2022-09-05T10:40:46.388Z,51.13
2022-09-05T10:43:50.666Z,53.90
2022-09-05T10:46:52.016Z,54.57
2022-09-05T10:49:45.010Z,54.02
2022-09-05T10:52:37.567Z,51.31
2022-09-05T10:55:31.325Z,49.53
2022-09-05T11:00:34.112Z,49.16
2022-09-05T11:02:22.515Z,48.60
2022-09-05T11:05:04.879Z,48.04
2022-09-05T11:08:05.753Z,47.83
2022-09-05T11:11:04.044Z,47.62
2022-09-05T11:13:54.296Z,46.48
2022-09-05T11:16:50.563Z,48.05
2022-09-05T11:19:44.279Z,46.47
2022-09-05T11:22:39.797Z,45.61
2022-09-05T11:25:40.450Z,45.38
2022-09-05T11:28:38.990Z,46.65
2022-09-05T11:34:28.455Z,45.45
2022-09-05T11:39:47.843Z,44.81
2022-09-05T11:40:04.704Z,42.94
2022-09-05T11:42:32.059Z,44.84
2022-09-05T11:45:42.238Z,44.34
2022-09-05T11:48:52.963Z,43.30
2022-09-05T11:52:14.540Z,43.02
2022-09-05T11:55:38.380Z,41.54
2022-09-05T11:58:47.039Z,43.06
2022-09-05T12:01:44.973Z,42.13
2022-09-05T12:05:49.921Z,40.54
2022-09-05T12:08:08.219Z,42.62
2022-09-05T12:11:06.264Z,41.56
2022-09-05T12:14:21.088Z,40.57
2022-09-05T12:17:35.275Z,40.65
2022-09-05T12:20:37.435Z,40.94
2022-09-05T12:24:07.981Z,40.65
2022-09-05T12:27:40.234Z,39.44
2022-09-05T12:30:22.877Z,40.09
2022-09-05T12:36:01.854Z,39.94
2022-09-05T12:40:03.100Z,38.98
2022-09-05T12:41:35.914Z,38.51
2022-09-05T12:44:34.701Z,37.65
2022-09-05T12:46:24.717Z,38.22
2022-09-05T12:49:28.595Z,37.13
2022-09-05T12:52:38.482Z,37.28
2022-09-05T12:55:32.428Z,37.48
2022-09-05T13:03:04.850Z,37.26
2022-09-05T13:03:08.605Z,36.80
2022-09-05T13:05:01.739Z,36.61
2022-09-05T13:07:56.152Z,36.88
2022-09-05T13:14:47.307Z,36.54
2022-09-05T13:14:58.214Z,37.15
2022-09-05T13:17:10.451Z,37.04
2022-09-05T13:19:59.630Z,36.57
2022-09-05T13:22:50.964Z,36.72
2022-09-05T13:25:43.003Z,35.90
2022-09-05T13:28:40.300Z,35.62
2022-09-05T13:37:53.994Z,32.83
2022-09-05T13:38:13.700Z,33.59
2022-09-05T13:38:48.532Z,34.48
2022-09-05T13:41:28.355Z,32.70
2022-09-05T13:44:00.418Z,33.35
2022-09-05T13:46:58.298Z,34.38
2022-09-05T13:49:33.172Z,33.85
2022-09-05T13:52:28.953Z,31.47
2022-09-05T13:55:10.563Z,31.56
2022-09-05T13:57:43.895Z,31.34
2022-09-05T14:00:53.116Z,32.19
2022-09-05T14:03:50.437Z,33.96
2022-09-05T14:06:45.914Z,34.86
2022-09-05T14:09:36.971Z,34.15
2022-09-05T14:12:12.634Z,33.40
2022-09-05T14:17:54.723Z,33.21
2022-09-05T14:20:50.204Z,33.66
2022-09-05T14:23:20.967Z,32.89
2022-09-05T14:25:53.972Z,33.83
2022-09-05T14:28:27.874Z,34.60
2022-09-05T14:33:56.589Z,34.16
2022-09-05T14:37:41.130Z,33.54
2022-09-05T14:37:53.651Z,34.38
2022-09-05T14:41:02.820Z,33.66
2022-09-05T14:44:11.344Z,33.42
2022-09-05T14:47:06.252Z,33.16
2022-09-05T14:49:56.810Z,32.65
2022-09-05T14:52:26.998Z,33.11
2022-09-05T15:02:38.534Z,33.06
2022-09-05T15:02:47.777Z,33.05
2022-09-05T15:06:36.442Z,31.93
2022-09-05T15:12:11.051Z,31.43
2022-09-05T15:12:25.203Z,32.43
2022-09-05T15:15:00.381Z,32.01
2022-09-05T15:17:30.483Z,31.98
2022-09-05T15:20:05.469Z,32.20
2022-09-05T15:22:36.927Z,31.84
2022-09-05T15:25:17.174Z,30.73
2022-09-05T15:27:46.180Z,30.55
2022-09-05T15:30:19.801Z,31.15
2022-09-05T15:32:50.781Z,29.58
2022-09-05T15:35:34.953Z,30.62
2022-09-05T15:38:22.003Z,30.20
2022-09-05T15:41:20.435Z,29.89
2022-09-05T15:43:52.707Z,29.89
2022-09-05T15:46:26.230Z,29.73
2022-09-05T15:49:00.317Z,29.93
2022-09-05T15:51:42.137Z,29.40
2022-09-05T15:54:14.039Z,30.03
2022-09-05T15:56:57.314Z,30.58
2022-09-05T15:59:30.665Z,29.96
2022-09-05T16:02:00.883Z,30.94
2022-09-05T16:08:21.810Z,30.50
2022-09-05T16:10:36.593Z,31.85
2022-09-05T16:10:41.442Z,30.58
2022-09-05T16:13:13.260Z,31.17
2022-09-05T16:22:22.851Z,31.25
2022-09-05T16:23:26.205Z,30.46
2022-09-05T16:23:31.033Z,29.30
2022-09-05T16:24:26.128Z,29.90
2022-09-05T16:27:15.029Z,28.55
2022-09-05T16:29:44.506Z,28.90
2022-09-05T16:32:20.029Z,29.76
2022-09-05T16:34:54.904Z,30.20
2022-09-05T16:37:29.583Z,29.97
2022-09-05T16:40:04.043Z,29.17
2022-09-05T16:42:46.692Z,29.71
2022-09-05T16:45:30.158Z,31.16
2022-09-05T16:48:08.322Z,31.41
2022-09-05T16:50:48.048Z,31.35
2022-09-05T16:53:32.637Z,30.28
2022-09-05T16:56:04.520Z,31.01
2022-09-05T16:58:38.113Z,32.38
2022-09-05T17:01:23.726Z,35.66
2022-09-05T17:03:55.430Z,38.17
2022-09-05T17:06:26.619Z,39.55
2022-09-05T17:09:12.908Z,39.65
2022-09-05T17:11:44.474Z,41.74
2022-09-05T17:14:35.135Z,42.00
2022-09-05T17:17:19.556Z,42.98
2022-09-05T17:20:06.040Z,43.78
2022-09-05T17:26:08.252Z,44.14
2022-09-05T17:29:25.498Z,45.38
2022-09-05T17:29:26.020Z,44.33
2022-09-05T17:31:53.592Z,46.23
2022-09-05T17:34:58.693Z,47.33
2022-09-05T17:38:12.508Z,47.17
2022-09-05T17:40:59.184Z,47.32
2022-09-05T17:43:30.540Z,48.57
2022-09-05T17:46:13.792Z,48.61
2022-09-05T17:49:19.311Z,48.35
2022-09-05T17:52:28.036Z,48.66
2022-09-05T17:54:57.285Z,49.53
2022-09-05T17:57:41.101Z,50.84
2022-09-05T18:00:48.842Z,51.02
2022-09-05T18:04:16.311Z,50.39
2022-09-05T18:10:12.598Z,51.15
2022-09-05T18:13:13.158Z,51.61
2022-09-05T18:16:10.485Z,51.60
2022-09-05T18:19:32.743Z,52.75
2022-09-05T18:21:51.606Z,52.77
2022-09-05T18:24:33.386Z,53.15
2022-09-05T18:27:36.514Z,53.16
2022-09-05T18:30:11.828Z,53.14
2022-09-05T18:32:47.240Z,53.22
2022-09-05T18:35:37.330Z,54.37
2022-09-05T18:38:15.746Z,55.34
2022-09-05T18:40:52.957Z,55.56
2022-09-05T18:43:33.476Z,55.93
2022-09-05T18:46:08.107Z,55.57
2022-09-05T18:48:52.324Z,55.41
2022-09-05T18:51:38.443Z,55.81
2022-09-05T18:54:20.341Z,56.48
2022-09-05T18:57:26.171Z,56.32
2022-09-05T18:59:51.545Z,57.23
2022-09-05T19:02:39.590Z,57.15
2022-09-05T19:05:28.470Z,58.62
2022-09-05T19:07:59.760Z,59.26
2022-09-05T19:10:35.240Z,59.89
2022-09-05T19:13:13.492Z,60.05
2022-09-05T19:15:49.804Z,62.31
2022-09-05T19:18:26.447Z,63.59
2022-09-05T19:21:12.084Z,66.53
2022-09-05T19:23:46.579Z,67.71
2022-09-05T19:26:14.537Z,69.89
2022-09-05T19:36:44.757Z,70.63
2022-09-05T19:36:57.057Z,69.08
2022-09-05T19:37:11.974Z,69.44
2022-09-05T19:37:22.527Z,69.85
2022-09-05T19:43:22.777Z,68.99
2022-09-05T19:47:38.174Z,68.82
2022-09-05T19:47:57.878Z,69.14
2022-09-05T19:48:27.710Z,68.35
2022-09-05T19:50:58.049Z,68.37
2022-09-05T19:53:26.113Z,69.37
2022-09-05T19:55:54.691Z,70.09
2022-09-05T19:58:24.224Z,70.15
2022-09-05T20:01:03.286Z,69.86
2022-09-05T20:03:38.937Z,69.16
2022-09-05T20:06:28.742Z,69.17
2022-09-05T20:09:10.009Z,71.57
2022-09-05T20:11:46.218Z,71.08
2022-09-05T20:14:19.985Z,70.79
2022-09-05T20:16:49.854Z,70.91
2022-09-05T20:19:39.129Z,71.74
2022-09-05T20:22:48.179Z,71.20
2022-09-05T20:25:01.535Z,70.43
2022-09-05T20:27:31.230Z,71.46
2022-09-05T20:30:02.398Z,71.20
2022-09-05T20:32:39.933Z,69.76
2022-09-05T20:37:24.015Z,68.86
2022-09-05T20:43:14.578Z,66.90
2022-09-05T20:43:23.234Z,67.52
2022-09-05T20:43:53.644Z,67.18
2022-09-05T20:49:49.851Z,67.12
2022-09-05T20:54:23.202Z,66.56
2022-09-05T20:54:24.889Z,68.74
2022-09-05T20:55:38.618Z,67.92
2022-09-05T20:58:11.046Z,66.21
2022-09-05T21:01:15.505Z,68.06
2022-09-05T21:03:40.633Z,67.87
2022-09-05T21:06:22.151Z,66.56
2022-09-05T21:08:51.171Z,66.50
2022-09-05T21:11:30.570Z,67.41
2022-09-05T21:14:03.294Z,66.88
2022-09-05T21:16:33.990Z,66.86
2022-09-05T21:19:02.357Z,66.04
2022-09-05T21:21:31.976Z,67.17
2022-09-05T21:24:18.156Z,66.67
2022-09-05T21:26:49.550Z,62.91
2022-09-05T21:29:26.066Z,60.57
2022-09-05T21:32:02.211Z,60.90
2022-09-05T21:34:34.283Z,60.32
2022-09-05T21:37:06.828Z,62.01
2022-09-05T21:39:39.958Z,63.36
2022-09-05T21:44:59.157Z,64.25
2022-09-05T21:47:39.314Z,64.02
2022-09-05T21:47:53.296Z,66.52
2022-09-05T21:50:31.539Z,60.54
2022-09-05T21:54:06.563Z,58.66
2022-09-05T21:59:26.995Z,57.51
2022-09-05T21:59:32.588Z,58.54
2022-09-05T22:01:44.737Z,55.58
2022-09-05T22:04:17.441Z,54.19
2022-09-05T22:06:48.706Z,53.94
2022-09-05T22:09:17.485Z,54.15
2022-09-05T22:11:49.950Z,53.85
2022-09-05T22:14:19.926Z,53.60
2022-09-05T22:16:50.442Z,56.06
2022-09-05T22:19:36.824Z,55.95
2022-09-05T22:22:15.962Z,57.99
2022-09-05T22:24:48.074Z,59.93
2022-09-05T22:27:19.957Z,59.41
2022-09-05T22:29:50.591Z,59.29
2022-09-05T22:32:33.772Z,57.26
2022-09-05T22:35:15.989Z,56.24
2022-09-05T22:37:59.201Z,56.41
2022-09-05T22:40:27.852Z,55.98
2022-09-05T22:42:56.937Z,56.99
2022-09-05T22:45:26.314Z,57.39
2022-09-05T22:47:54.159Z,57.91
2022-09-05T22:50:22.104Z,58.02
2022-09-05T22:52:49.844Z,59.71
2022-09-05T22:55:17.547Z,60.40
2022-09-05T22:57:45.307Z,62.76
2022-09-05T23:00:13.661Z,63.74
2022-09-05T23:02:42.761Z,65.60
2022-09-05T23:05:10.862Z,65.76
2022-09-05T23:07:38.743Z,65.18
2022-09-05T23:10:07.014Z,65.88
2022-09-05T23:12:38.055Z,65.61
2022-09-05T23:15:06.712Z,63.91
2022-09-05T23:17:34.504Z,62.98
2022-09-05T23:20:05.190Z,61.59
2022-09-05T23:22:32.922Z,60.88
2022-09-05T23:25:00.653Z,60.05
2022-09-05T23:27:29.814Z,58.93
2022-09-05T23:29:57.553Z,58.00
2022-09-05T23:32:25.260Z,58.54
2022-09-05T23:34:53.088Z,58.67
2022-09-05T23:37:22.151Z,60.12
2022-09-05T23:39:50.320Z,61.11
2022-09-05T23:42:18.218Z,62.42
2022-09-05T23:44:46.007Z,63.11
2022-09-05T23:47:13.745Z,64.12
2022-09-05T23:49:41.562Z,63.66
2022-09-05T23:52:09.266Z,65.07
2022-09-05T23:54:38.344Z,67.38
2022-09-05T23:57:06.123Z,67.77
2022-09-05T23:59:33.929Z,66.91
